sensor_id;sensor_type;location;lat;lon;timestamp;pressure;altitude;pressure_sealevel;temperature;humidity
66090;BME280;53113;45.602;11.904;2022-12-07T00:01:26;101245.28;;;2.80;72.55
66090;BME280;53113;45.602;11.904;2022-12-07T00:03:54;101242.12;;;2.74;72.47
66090;BME280;53113;45.602;11.904;2022-12-07T00:06:22;101240.55;;;2.70;72.44
66090;BME280;53113;45.602;11.904;2022-12-07T00:08:48;101239.13;;;2.65;72.45
66090;BME280;53113;45.602;11.904;2022-12-07T00:11:16;101236.85;;;2.60;72.48
66090;BME280;53113;45.602;11.904;2022-12-07T00:13:43;101237.40;;;2.54;72.42
66090;BME280;53113;45.602;11.904;2022-12-07T00:16:15;101236.06;;;2.52;72.49
66090;BME280;53113;45.602;11.904;2022-12-07T00:18:42;101235.17;;;2.53;72.47
66090;BME280;53113;45.602;11.904;2022-12-07T00:21:17;101227.39;;;2.56;72.40
66090;BME280;53113;45.602;11.904;2022-12-07T00:23:44;101234.16;;;2.57;72.43
66090;BME280;53113;45.602;11.904;2022-12-07T00:26:13;101236.09;;;2.57;72.43
66090;BME280;53113;45.602;11.904;2022-12-07T00:28:40;101235.15;;;2.53;72.39
66090;BME280;53113;45.602;11.904;2022-12-07T00:31:16;101236.98;;;2.51;72.48
66090;BME280;53113;45.602;11.904;2022-12-07T00:33:43;101241.29;;;2.47;72.58
66090;BME280;53113;45.602;11.904;2022-12-07T00:36:13;101240.73;;;2.43;72.68
66090;BME280;53113;45.602;11.904;2022-12-07T00:38:40;101236.30;;;2.40;72.92
66090;BME280;53113;45.602;11.904;2022-12-07T00:41:27;101231.52;;;2.37;72.89
66090;BME280;53113;45.602;11.904;2022-12-07T00:43:53;101232.15;;;2.34;73.02
66090;BME280;53113;45.602;11.904;2022-12-07T00:46:20;101230.86;;;2.31;73.02
66090;BME280;53113;45.602;11.904;2022-12-07T00:48:46;101228.70;;;2.28;73.17
66090;BME280;53113;45.602;11.904;2022-12-07T00:51:14;101227.98;;;2.28;73.16
66090;BME280;53113;45.602;11.904;2022-12-07T00:53:40;101226.63;;;2.32;73.34
66090;BME280;53113;45.602;11.904;2022-12-07T00:56:12;101221.40;;;2.36;73.23
66090;BME280;53113;45.602;11.904;2022-12-07T00:58:39;101223.58;;;2.39;73.18
66090;BME280;53113;45.602;11.904;2022-12-07T01:01:06;101224.09;;;2.40;73.17
66090;BME280;53113;45.602;11.904;2022-12-07T01:03:32;101223.27;;;2.38;73.20
66090;BME280;53113;45.602;11.904;2022-12-07T01:05:58;101217.59;;;2.36;73.23
66090;BME280;53113;45.602;11.904;2022-12-07T01:08:26;101216.67;;;2.32;73.15
66090;BME280;53113;45.602;11.904;2022-12-07T01:11:07;101215.95;;;2.27;73.00
66090;BME280;53113;45.602;11.904;2022-12-07T01:13:34;101211.40;;;2.22;73.10
66090;BME280;53113;45.602;11.904;2022-12-07T01:16:02;101213.46;;;2.18;72.95
66090;BME280;53113;45.602;11.904;2022-12-07T01:18:29;101215.40;;;2.12;72.90
66090;BME280;53113;45.602;11.904;2022-12-07T01:21:10;101210.01;;;2.06;72.94
66090;BME280;53113;45.602;11.904;2022-12-07T01:23:37;101211.25;;;2.00;72.97
66090;BME280;53113;45.602;11.904;2022-12-07T01:26:05;101211.48;;;1.98;72.91
66090;BME280;53113;45.602;11.904;2022-12-07T01:28:32;101210.61;;;1.98;72.86
66090;BME280;53113;45.602;11.904;2022-12-07T01:31:03;101212.84;;;2.00;72.84
66090;BME280;53113;45.602;11.904;2022-12-07T01:33:32;101210.04;;;2.00;72.86
66090;BME280;53113;45.602;11.904;2022-12-07T01:36:25;101214.44;;;1.99;72.92
66090;BME280;53113;45.602;11.904;2022-12-07T01:38:55;101209.47;;;1.96;72.97
66090;BME280;53113;45.602;11.904;2022-12-07T01:41:24;101208.00;;;1.93;73.08
66090;BME280;53113;45.602;11.904;2022-12-07T01:44:25;101205.52;;;1.88;73.05
66090;BME280;53113;45.602;11.904;2022-12-07T01:46:53;101207.59;;;1.83;73.10
66090;BME280;53113;45.602;11.904;2022-12-07T01:51:58;101198.31;;;1.73;73.18
66090;BME280;53113;45.602;11.904;2022-12-07T01:54:27;101198.65;;;1.68;73.21
66090;BME280;53113;45.602;11.904;2022-12-07T01:56:54;101195.80;;;1.64;73.27
66090;BME280;53113;45.602;11.904;2022-12-07T01:59:24;101196.72;;;1.63;73.38
66090;BME280;53113;45.602;11.904;2022-12-07T02:01:53;101195.23;;;1.66;73.28
66090;BME280;53113;45.602;11.904;2022-12-07T02:04:21;101191.78;;;1.69;73.29
66090;BME280;53113;45.602;11.904;2022-12-07T02:06:48;101190.16;;;1.71;73.22
66090;BME280;53113;45.602;11.904;2022-12-07T02:09:14;101190.69;;;1.72;73.25
66090;BME280;53113;45.602;11.904;2022-12-07T02:11:40;101190.39;;;1.69;73.32
66090;BME280;53113;45.602;11.904;2022-12-07T02:14:06;101190.21;;;1.70;73.44
66090;BME280;53113;45.602;11.904;2022-12-07T02:20:09;101182.67;;;1.65;73.49
66090;BME280;53113;45.602;11.904;2022-12-07T02:25:19;101185.44;;;1.61;73.48
66090;BME280;53113;45.602;11.904;2022-12-07T02:30:42;101182.56;;;1.52;73.55
66090;BME280;53113;45.602;11.904;2022-12-07T02:40:48;101178.73;;;1.63;73.62
66090;BME280;53113;45.602;11.904;2022-12-07T02:43:34;101183.38;;;1.64;73.70
66090;BME280;53113;45.602;11.904;2022-12-07T02:46:08;101186.71;;;1.64;73.66
66090;BME280;53113;45.602;11.904;2022-12-07T02:48:37;101190.59;;;1.63;73.72
66090;BME280;53113;45.602;11.904;2022-12-07T02:51:04;101189.41;;;1.62;73.68
66090;BME280;53113;45.602;11.904;2022-12-07T02:53:35;101187.03;;;1.60;73.57
66090;BME280;53113;45.602;11.904;2022-12-07T02:56:13;101185.20;;;1.57;73.73
66090;BME280;53113;45.602;11.904;2022-12-07T03:04:23;101178.02;;;1.46;73.65
66090;BME280;53113;45.602;11.904;2022-12-07T03:06:57;101173.66;;;1.47;73.81
66090;BME280;53113;45.602;11.904;2022-12-07T03:12:17;101166.60;;;1.54;73.71
66090;BME280;53113;45.602;11.904;2022-12-07T03:14:52;101162.70;;;1.57;73.79
66090;BME280;53113;45.602;11.904;2022-12-07T03:17:24;101163.19;;;1.58;73.87
66090;BME280;53113;45.602;11.904;2022-12-07T03:19:53;101162.30;;;1.58;73.93
66090;BME280;53113;45.602;11.904;2022-12-07T03:22:21;101158.70;;;1.56;73.85
66090;BME280;53113;45.602;11.904;2022-12-07T03:24:55;101162.60;;;1.54;73.97
66090;BME280;53113;45.602;11.904;2022-12-07T03:27:58;101156.91;;;1.52;73.93
66090;BME280;53113;45.602;11.904;2022-12-07T03:30:52;101151.45;;;1.48;73.93
66090;BME280;53113;45.602;11.904;2022-12-07T03:33:25;101153.80;;;1.46;73.90
66090;BME280;53113;45.602;11.904;2022-12-07T03:36:10;101152.70;;;1.41;73.94
66090;BME280;53113;45.602;11.904;2022-12-07T03:38:42;101143.05;;;1.38;74.11
66090;BME280;53113;45.602;11.904;2022-12-07T03:43:42;101141.61;;;1.33;74.03
66090;BME280;53113;45.602;11.904;2022-12-07T03:46:27;101139.29;;;1.35;74.02
66090;BME280;53113;45.602;11.904;2022-12-07T03:51:56;101141.34;;;1.42;74.30
66090;BME280;53113;45.602;11.904;2022-12-07T03:54:41;101139.03;;;1.43;74.36
66090;BME280;53113;45.602;11.904;2022-12-07T03:57:11;101140.21;;;1.44;74.43
66090;BME280;53113;45.602;11.904;2022-12-07T03:59:38;101140.55;;;1.45;74.55
66090;BME280;53113;45.602;11.904;2022-12-07T04:02:07;101135.71;;;1.44;74.57
66090;BME280;53113;45.602;11.904;2022-12-07T04:04:33;101135.23;;;1.42;74.53
66090;BME280;53113;45.602;11.904;2022-12-07T04:06:59;101137.72;;;1.41;74.48
66090;BME280;53113;45.602;11.904;2022-12-07T04:09:26;101134.82;;;1.38;74.40
66090;BME280;53113;45.602;11.904;2022-12-07T04:11:52;101135.59;;;1.36;74.61
66090;BME280;53113;45.602;11.904;2022-12-07T04:14:17;101132.17;;;1.34;74.50
66090;BME280;53113;45.602;11.904;2022-12-07T04:16:52;101129.18;;;1.35;74.58
66090;BME280;53113;45.602;11.904;2022-12-07T04:19:20;101133.27;;;1.38;74.65
66090;BME280;53113;45.602;11.904;2022-12-07T04:21:47;101132.08;;;1.43;74.51
66090;BME280;53113;45.602;11.904;2022-12-07T04:24:14;101127.80;;;1.45;74.44
66090;BME280;53113;45.602;11.904;2022-12-07T04:26:41;101128.09;;;1.47;74.37
66090;BME280;53113;45.602;11.904;2022-12-07T04:29:07;101128.45;;;1.47;74.36
66090;BME280;53113;45.602;11.904;2022-12-07T04:31:34;101123.75;;;1.47;74.47
66090;BME280;53113;45.602;11.904;2022-12-07T04:34:00;101122.73;;;1.46;74.46
66090;BME280;53113;45.602;11.904;2022-12-07T04:36:26;101117.20;;;1.44;74.35
66090;BME280;53113;45.602;11.904;2022-12-07T04:38:55;101119.36;;;1.42;74.37
66090;BME280;53113;45.602;11.904;2022-12-07T04:41:22;101117.17;;;1.39;74.39
66090;BME280;53113;45.602;11.904;2022-12-07T04:44:01;101116.38;;;1.37;74.37
66090;BME280;53113;45.602;11.904;2022-12-07T04:46:30;101117.37;;;1.33;74.22
66090;BME280;53113;45.602;11.904;2022-12-07T04:48:57;101116.02;;;1.32;74.22
66090;BME280;53113;45.602;11.904;2022-12-07T04:51:26;101113.23;;;1.32;74.25
66090;BME280;53113;45.602;11.904;2022-12-07T04:53:53;101113.95;;;1.36;74.37
66090;BME280;53113;45.602;11.904;2022-12-07T04:56:19;101115.08;;;1.39;74.30
66090;BME280;53113;45.602;11.904;2022-12-07T04:58:46;101113.48;;;1.40;74.22
66090;BME280;53113;45.602;11.904;2022-12-07T05:01:14;101112.77;;;1.40;74.25
66090;BME280;53113;45.602;11.904;2022-12-07T05:03:40;101116.46;;;1.40;74.13
66090;BME280;53113;45.602;11.904;2022-12-07T05:06:07;101116.02;;;1.37;74.11
66090;BME280;53113;45.602;11.904;2022-12-07T05:08:34;101114.17;;;1.35;74.08
66090;BME280;53113;45.602;11.904;2022-12-07T05:11:06;101109.04;;;1.32;74.10
66090;BME280;53113;45.602;11.904;2022-12-07T05:13:33;101103.35;;;1.30;74.10
66090;BME280;53113;45.602;11.904;2022-12-07T05:15:59;101100.51;;;1.25;74.09
66090;BME280;53113;45.602;11.904;2022-12-07T05:18:25;101101.15;;;1.21;74.03
66090;BME280;53113;45.602;11.904;2022-12-07T05:20:51;101102.66;;;1.18;74.01
66090;BME280;53113;45.602;11.904;2022-12-07T05:23:18;101101.50;;;1.16;73.97
66090;BME280;53113;45.602;11.904;2022-12-07T05:25:44;101100.20;;;1.18;74.09
66090;BME280;53113;45.602;11.904;2022-12-07T05:28:10;101102.35;;;1.22;74.00
66090;BME280;53113;45.602;11.904;2022-12-07T05:30:36;101104.02;;;1.25;74.05
66090;BME280;53113;45.602;11.904;2022-12-07T05:33:02;101102.93;;;1.26;74.08
66090;BME280;53113;45.602;11.904;2022-12-07T05:35:29;101101.38;;;1.26;74.12
66090;BME280;53113;45.602;11.904;2022-12-07T05:37:55;101101.57;;;1.25;74.09
66090;BME280;53113;45.602;11.904;2022-12-07T05:40:22;101106.84;;;1.23;74.20
66090;BME280;53113;45.602;11.904;2022-12-07T05:42:48;101109.70;;;1.22;74.22
66090;BME280;53113;45.602;11.904;2022-12-07T05:45:14;101109.41;;;1.20;74.27
66090;BME280;53113;45.602;11.904;2022-12-07T05:47:39;101105.09;;;1.18;74.27
66090;BME280;53113;45.602;11.904;2022-12-07T05:50:06;101104.81;;;1.16;74.25
66090;BME280;53113;45.602;11.904;2022-12-07T05:52:32;101102.09;;;1.14;74.33
66090;BME280;53113;45.602;11.904;2022-12-07T05:54:58;101103.23;;;1.11;74.23
66090;BME280;53113;45.602;11.904;2022-12-07T05:57:24;101099.57;;;1.11;74.28
66090;BME280;53113;45.602;11.904;2022-12-07T05:59:50;101096.67;;;1.14;74.25
66090;BME280;53113;45.602;11.904;2022-12-07T06:02:16;101095.81;;;1.19;74.26
66090;BME280;53113;45.602;11.904;2022-12-07T06:04:45;101097.28;;;1.23;74.21
66090;BME280;53113;45.602;11.904;2022-12-07T06:07:13;101096.52;;;1.24;74.30
66090;BME280;53113;45.602;11.904;2022-12-07T06:09:40;101098.07;;;1.25;74.29
66090;BME280;53113;45.602;11.904;2022-12-07T06:12:06;101098.95;;;1.25;74.26
66090;BME280;53113;45.602;11.904;2022-12-07T06:14:51;101100.55;;;1.24;74.32
66090;BME280;53113;45.602;11.904;2022-12-07T06:17:16;101101.83;;;1.22;74.24
66090;BME280;53113;45.602;11.904;2022-12-07T06:19:42;101100.71;;;1.19;74.24
66090;BME280;53113;45.602;11.904;2022-12-07T06:22:09;101102.00;;;1.16;74.26
66090;BME280;53113;45.602;11.904;2022-12-07T06:24:37;101103.49;;;1.13;74.41
66090;BME280;53113;45.602;11.904;2022-12-07T06:27:03;101104.79;;;1.11;74.40
66090;BME280;53113;45.602;11.904;2022-12-07T06:29:29;101108.51;;;1.09;74.44
66090;BME280;53113;45.602;11.904;2022-12-07T06:31:55;101107.44;;;1.10;74.49
66090;BME280;53113;45.602;11.904;2022-12-07T06:34:22;101109.29;;;1.13;74.43
66090;BME280;53113;45.602;11.904;2022-12-07T06:36:48;101110.87;;;1.17;74.44
66090;BME280;53113;45.602;11.904;2022-12-07T06:39:21;101110.42;;;1.20;74.37
66090;BME280;53113;45.602;11.904;2022-12-07T06:41:47;101116.44;;;1.23;74.39
66090;BME280;53113;45.602;11.904;2022-12-07T06:44:13;101120.42;;;1.24;74.41
66090;BME280;53113;45.602;11.904;2022-12-07T06:46:39;101115.52;;;1.25;74.44
66090;BME280;53113;45.602;11.904;2022-12-07T06:49:05;101112.08;;;1.24;74.55
66090;BME280;53113;45.602;11.904;2022-12-07T06:51:32;101114.32;;;1.24;74.49
66090;BME280;53113;45.602;11.904;2022-12-07T06:53:59;101113.98;;;1.24;74.58
66090;BME280;53113;45.602;11.904;2022-12-07T06:56:24;101112.46;;;1.22;74.53
66090;BME280;53113;45.602;11.904;2022-12-07T06:58:50;101109.52;;;1.21;74.58
66090;BME280;53113;45.602;11.904;2022-12-07T07:01:17;101112.70;;;1.20;74.57
66090;BME280;53113;45.602;11.904;2022-12-07T07:03:45;101112.98;;;1.22;74.59
66090;BME280;53113;45.602;11.904;2022-12-07T07:06:12;101110.40;;;1.27;74.47
66090;BME280;53113;45.602;11.904;2022-12-07T07:08:39;101113.38;;;1.33;74.50
66090;BME280;53113;45.602;11.904;2022-12-07T07:11:07;101116.55;;;1.37;74.55
66090;BME280;53113;45.602;11.904;2022-12-07T07:13:34;101117.11;;;1.41;74.62
66090;BME280;53113;45.602;11.904;2022-12-07T07:15:59;101119.67;;;1.43;74.55
66090;BME280;53113;45.602;11.904;2022-12-07T07:18:26;101120.84;;;1.45;74.57
66090;BME280;53113;45.602;11.904;2022-12-07T07:20:53;101124.13;;;1.46;74.53
66090;BME280;53113;45.602;11.904;2022-12-07T07:23:20;101124.81;;;1.46;74.59
66090;BME280;53113;45.602;11.904;2022-12-07T07:25:47;101130.73;;;1.46;74.63
66090;BME280;53113;45.602;11.904;2022-12-07T07:28:14;101130.36;;;1.47;74.65
66090;BME280;53113;45.602;11.904;2022-12-07T07:30:40;101127.92;;;1.47;74.62
66090;BME280;53113;45.602;11.904;2022-12-07T07:33:06;101131.23;;;1.47;74.83
66090;BME280;53113;45.602;11.904;2022-12-07T07:35:34;101133.72;;;1.51;74.80
66090;BME280;53113;45.602;11.904;2022-12-07T07:38:00;101138.01;;;1.59;74.89
66090;BME280;53113;45.602;11.904;2022-12-07T07:40:27;101134.80;;;1.66;74.82
66090;BME280;53113;45.602;11.904;2022-12-07T07:42:56;101133.55;;;1.73;74.86
66090;BME280;53113;45.602;11.904;2022-12-07T07:45:23;101139.17;;;1.78;74.85
66090;BME280;53113;45.602;11.904;2022-12-07T07:47:50;101141.69;;;1.81;74.91
66090;BME280;53113;45.602;11.904;2022-12-07T07:50:17;101140.05;;;1.83;74.82
66090;BME280;53113;45.602;11.904;2022-12-07T07:52:44;101139.95;;;1.85;75.10
66090;BME280;53113;45.602;11.904;2022-12-07T07:55:11;101143.39;;;1.87;75.08
66090;BME280;53113;45.602;11.904;2022-12-07T07:57:39;101150.80;;;1.90;75.29
66090;BME280;53113;45.602;11.904;2022-12-07T08:00:13;101147.59;;;1.92;75.26
66090;BME280;53113;45.602;11.904;2022-12-07T08:02:42;101155.86;;;1.96;75.36
66090;BME280;53113;45.602;11.904;2022-12-07T08:05:10;101154.48;;;2.00;75.52
66090;BME280;53113;45.602;11.904;2022-12-07T08:07:37;101162.75;;;2.09;75.60
66090;BME280;53113;45.602;11.904;2022-12-07T08:10:04;101168.00;;;2.19;75.71
66090;BME280;53113;45.602;11.904;2022-12-07T08:12:30;101163.80;;;2.29;75.85
66090;BME280;53113;45.602;11.904;2022-12-07T08:14:56;101164.89;;;2.38;75.99
66090;BME280;53113;45.602;11.904;2022-12-07T08:17:22;101165.95;;;2.48;76.09
66090;BME280;53113;45.602;11.904;2022-12-07T08:19:47;101174.78;;;2.55;76.06
66090;BME280;53113;45.602;11.904;2022-12-07T08:22:13;101182.19;;;2.64;76.16
66090;BME280;53113;45.602;11.904;2022-12-07T08:24:39;101185.44;;;2.71;76.31
66090;BME280;53113;45.602;11.904;2022-12-07T08:27:05;101184.60;;;2.79;76.62
66090;BME280;53113;45.602;11.904;2022-12-07T08:29:30;101184.91;;;2.90;76.98
66090;BME280;53113;45.602;11.904;2022-12-07T08:31:56;101179.14;;;3.04;77.38
66090;BME280;53113;45.602;11.904;2022-12-07T08:34:22;101181.86;;;3.25;77.71
66090;BME280;53113;45.602;11.904;2022-12-07T08:36:48;101179.31;;;3.50;78.17
66090;BME280;53113;45.602;11.904;2022-12-07T08:39:14;101180.38;;;3.81;78.77
66090;BME280;53113;45.602;11.904;2022-12-07T08:41:39;101175.41;;;4.16;79.26
66090;BME280;53113;45.602;11.904;2022-12-07T08:44:05;101177.04;;;4.56;79.82
66090;BME280;53113;45.602;11.904;2022-12-07T08:46:38;101180.04;;;5.00;80.01
66090;BME280;53113;45.602;11.904;2022-12-07T08:51:40;101175.02;;;5.95;79.79
66090;BME280;53113;45.602;11.904;2022-12-07T08:54:10;101178.39;;;6.41;79.47
66090;BME280;53113;45.602;11.904;2022-12-07T08:56:38;101178.50;;;6.86;78.82
66090;BME280;53113;45.602;11.904;2022-12-07T08:59:05;101175.36;;;7.28;77.86
66090;BME280;53113;45.602;11.904;2022-12-07T09:01:31;101175.26;;;7.64;77.04
66090;BME280;53113;45.602;11.904;2022-12-07T09:03:57;101177.80;;;7.97;75.90
66090;BME280;53113;45.602;11.904;2022-12-07T09:06:23;101174.60;;;8.28;74.99
66090;BME280;53113;45.602;11.904;2022-12-07T09:08:51;101178.12;;;8.56;74.31
66090;BME280;53113;45.602;11.904;2022-12-07T09:11:24;101176.45;;;8.80;74.12
66090;BME280;53113;45.602;11.904;2022-12-07T09:13:50;101177.33;;;9.06;73.99
66090;BME280;53113;45.602;11.904;2022-12-07T09:16:16;101179.55;;;9.30;73.52
66090;BME280;53113;45.602;11.904;2022-12-07T09:18:42;101183.08;;;9.52;72.91
66090;BME280;53113;45.602;11.904;2022-12-07T09:21:08;101184.23;;;9.73;72.21
66090;BME280;53113;45.602;11.904;2022-12-07T09:23:36;101183.98;;;9.96;71.88
66090;BME280;53113;45.602;11.904;2022-12-07T09:26:03;101179.21;;;10.22;71.79
66090;BME280;53113;45.602;11.904;2022-12-07T09:28:33;101177.98;;;10.54;71.74
66090;BME280;53113;45.602;11.904;2022-12-07T09:30:58;101176.19;;;10.90;71.71
66090;BME280;53113;45.602;11.904;2022-12-07T09:33:25;101179.17;;;11.30;71.16
66090;BME280;53113;45.602;11.904;2022-12-07T09:35:51;101169.94;;;11.65;70.75
66090;BME280;53113;45.602;11.904;2022-12-07T09:38:19;101170.89;;;12.01;70.06
66090;BME280;53113;45.602;11.904;2022-12-07T09:40:45;101173.41;;;12.36;69.34
66090;BME280;53113;45.602;11.904;2022-12-07T09:43:18;101168.07;;;12.68;68.71
66090;BME280;53113;45.602;11.904;2022-12-07T09:45:46;101170.38;;;13.02;68.57
66090;BME280;53113;45.602;11.904;2022-12-07T09:48:34;101167.76;;;13.36;67.80
66090;BME280;53113;45.602;11.904;2022-12-07T09:51:21;101158.52;;;13.73;66.96
66090;BME280;53113;45.602;11.904;2022-12-07T09:53:49;101157.38;;;14.04;65.76
66090;BME280;53113;45.602;11.904;2022-12-07T09:56:17;101151.55;;;14.31;65.04
66090;BME280;53113;45.602;11.904;2022-12-07T09:58:45;101145.08;;;14.55;64.64
66090;BME280;53113;45.602;11.904;2022-12-07T10:01:15;101146.45;;;14.78;63.94
66090;BME280;53113;45.602;11.904;2022-12-07T10:04:15;101147.64;;;14.97;62.53
66090;BME280;53113;45.602;11.904;2022-12-07T10:06:42;101141.53;;;15.18;61.85
66090;BME280;53113;45.602;11.904;2022-12-07T10:09:13;101138.65;;;15.33;61.28
66090;BME280;53113;45.602;11.904;2022-12-07T10:12:07;101135.85;;;15.44;60.66
66090;BME280;53113;45.602;11.904;2022-12-07T10:14:54;101130.73;;;15.57;59.93
66090;BME280;53113;45.602;11.904;2022-12-07T10:17:35;101127.79;;;15.64;59.24
66090;BME280;53113;45.602;11.904;2022-12-07T10:20:25;101126.48;;;15.71;59.15
66090;BME280;53113;45.602;11.904;2022-12-07T10:23:01;101126.04;;;15.76;58.72
66090;BME280;53113;45.602;11.904;2022-12-07T10:25:31;101121.80;;;15.81;58.32
66090;BME280;53113;45.602;11.904;2022-12-07T10:30:34;101115.73;;;15.93;57.92
66090;BME280;53113;45.602;11.904;2022-12-07T10:35:56;101110.20;;;16.06;57.26
66090;BME280;53113;45.602;11.904;2022-12-07T10:38:27;101110.96;;;16.11;57.07
66090;BME280;53113;45.602;11.904;2022-12-07T10:41:06;101108.69;;;16.17;56.86
66090;BME280;53113;45.602;11.904;2022-12-07T10:43:33;101101.78;;;16.22;56.78
66090;BME280;53113;45.602;11.904;2022-12-07T10:54:21;101091.67;;;16.67;55.80
66090;BME280;53113;45.602;11.904;2022-12-07T11:21:31;101072.79;;;17.93;52.73
66090;BME280;53113;45.602;11.904;2022-12-07T11:24:06;101067.48;;;18.10;52.28
66090;BME280;53113;45.602;11.904;2022-12-07T11:37:36;101045.91;;;19.22;51.20
66090;BME280;53113;45.602;11.904;2022-12-07T11:42:45;101034.13;;;19.68;50.49
66090;BME280;53113;45.602;11.904;2022-12-07T11:45:23;101030.50;;;19.91;50.11
66090;BME280;53113;45.602;11.904;2022-12-07T11:47:59;101029.79;;;20.17;50.13
66090;BME280;53113;45.602;11.904;2022-12-07T11:50:42;101026.58;;;20.42;49.95
66090;BME280;53113;45.602;11.904;2022-12-07T11:53:37;101018.39;;;20.69;49.41
66090;BME280;53113;45.602;11.904;2022-12-07T11:56:15;101016.45;;;20.94;47.76
66090;BME280;53113;45.602;11.904;2022-12-07T12:01:35;101019.07;;;21.27;45.13
66090;BME280;53113;45.602;11.904;2022-12-07T12:06:37;101017.72;;;21.42;43.10
66090;BME280;53113;45.602;11.904;2022-12-07T12:22:49;100999.80;;;21.36;42.35
66090;BME280;53113;45.602;11.904;2022-12-07T12:25:24;100996.06;;;21.35;41.90
66090;BME280;53113;45.602;11.904;2022-12-07T12:27:53;100995.29;;;21.33;41.75
66090;BME280;53113;45.602;11.904;2022-12-07T12:30:38;100992.56;;;21.34;41.73
66090;BME280;53113;45.602;11.904;2022-12-07T12:33:26;100993.36;;;21.32;41.02
66090;BME280;53113;45.602;11.904;2022-12-07T12:49:38;100984.05;;;21.15;39.57
66090;BME280;53113;45.602;11.904;2022-12-07T12:54:35;100980.20;;;21.12;38.92
66090;BME280;53113;45.602;11.904;2022-12-07T12:57:09;100979.65;;;21.11;39.98
66090;BME280;53113;45.602;11.904;2022-12-07T13:02:26;100980.98;;;21.40;41.43
66090;BME280;53113;45.602;11.904;2022-12-07T13:04:56;100980.49;;;21.63;41.79
66090;BME280;53113;45.602;11.904;2022-12-07T13:13:05;100971.61;;;22.22;39.90
66090;BME280;53113;45.602;11.904;2022-12-07T13:15:54;100962.50;;;22.27;39.62
66090;BME280;53113;45.602;11.904;2022-12-07T13:29:11;100966.00;;;21.50;38.67
66090;BME280;53113;45.602;11.904;2022-12-07T13:34:35;100963.35;;;21.59;38.02
66090;BME280;53113;45.602;11.904;2022-12-07T13:39:52;100959.96;;;21.81;38.35
66090;BME280;53113;45.602;11.904;2022-12-07T13:42:29;100955.09;;;21.92;38.47
66090;BME280;53113;45.602;11.904;2022-12-07T13:44:57;100957.36;;;22.01;38.59
66090;BME280;53113;45.602;11.904;2022-12-07T13:47:49;100956.92;;;22.09;38.44
66090;BME280;53113;45.602;11.904;2022-12-07T13:50:30;100952.77;;;22.18;38.76
66090;BME280;53113;45.602;11.904;2022-12-07T13:53:00;100951.89;;;22.26;39.02
66090;BME280;53113;45.602;11.904;2022-12-07T13:55:27;100952.98;;;22.32;38.78
66090;BME280;53113;45.602;11.904;2022-12-07T13:57:54;100955.62;;;22.36;39.03
66090;BME280;53113;45.602;11.904;2022-12-07T14:00:26;100956.08;;;22.40;38.91
66090;BME280;53113;45.602;11.904;2022-12-07T14:03:02;100957.50;;;22.40;38.32
66090;BME280;53113;45.602;11.904;2022-12-07T14:05:33;100953.83;;;22.38;38.16
66090;BME280;53113;45.602;11.904;2022-12-07T14:08:05;100951.77;;;22.31;36.78
66090;BME280;53113;45.602;11.904;2022-12-07T14:10:36;100947.98;;;22.22;36.95
66090;BME280;53113;45.602;11.904;2022-12-07T14:13:22;100955.71;;;22.15;37.14
66090;BME280;53113;45.602;11.904;2022-12-07T14:15:50;100954.26;;;22.06;37.12
66090;BME280;53113;45.602;11.904;2022-12-07T14:23:36;100950.75;;;21.80;37.94
66090;BME280;53113;45.602;11.904;2022-12-07T14:26:09;100953.54;;;21.72;38.09
66090;BME280;53113;45.602;11.904;2022-12-07T14:28:38;100957.33;;;21.62;37.79
66090;BME280;53113;45.602;11.904;2022-12-07T14:31:14;100956.48;;;21.51;37.85
66090;BME280;53113;45.602;11.904;2022-12-07T14:33:41;100954.48;;;21.39;37.98
66090;BME280;53113;45.602;11.904;2022-12-07T14:36:11;100956.95;;;21.29;38.50
66090;BME280;53113;45.602;11.904;2022-12-07T14:38:37;100955.26;;;21.15;38.40
66090;BME280;53113;45.602;11.904;2022-12-07T14:41:04;100958.34;;;21.03;38.56
66090;BME280;53113;45.602;11.904;2022-12-07T14:43:50;100957.66;;;20.89;38.98
66090;BME280;53113;45.602;11.904;2022-12-07T14:46:16;100955.31;;;20.75;39.01
66090;BME280;53113;45.602;11.904;2022-12-07T14:48:42;100961.15;;;20.60;39.26
66090;BME280;53113;45.602;11.904;2022-12-07T14:51:10;100964.84;;;20.43;38.86
66090;BME280;53113;45.602;11.904;2022-12-07T14:53:44;100963.84;;;20.23;39.11
66090;BME280;53113;45.602;11.904;2022-12-07T14:56:11;100963.54;;;20.02;39.30
66090;BME280;53113;45.602;11.904;2022-12-07T14:58:37;100962.73;;;19.79;39.52
66090;BME280;53113;45.602;11.904;2022-12-07T15:01:03;100965.38;;;19.54;39.65
66090;BME280;53113;45.602;11.904;2022-12-07T15:03:29;100965.38;;;19.27;39.91
66090;BME280;53113;45.602;11.904;2022-12-07T15:05:55;100967.23;;;18.96;40.01
66090;BME280;53113;45.602;11.904;2022-12-07T15:08:21;100965.13;;;18.64;40.11
66090;BME280;53113;45.602;11.904;2022-12-07T15:10:47;100968.38;;;18.29;40.32
66090;BME280;53113;45.602;11.904;2022-12-07T15:13:12;100975.61;;;17.96;40.57
66090;BME280;53113;45.602;11.904;2022-12-07T15:15:58;100977.43;;;17.59;41.06
66090;BME280;53113;45.602;11.904;2022-12-07T15:18:25;100979.34;;;17.25;41.51
66090;BME280;53113;45.602;11.904;2022-12-07T15:20:50;100980.41;;;16.93;41.97
66090;BME280;53113;45.602;11.904;2022-12-07T15:23:17;100978.73;;;16.62;42.28
66090;BME280;53113;45.602;11.904;2022-12-07T15:25:47;100982.71;;;16.32;42.53
66090;BME280;53113;45.602;11.904;2022-12-07T15:28:14;100987.05;;;16.02;42.84
66090;BME280;53113;45.602;11.904;2022-12-07T15:30:42;100987.06;;;15.73;43.42
66090;BME280;53113;45.602;11.904;2022-12-07T15:33:09;100986.80;;;15.45;43.78
66090;BME280;53113;45.602;11.904;2022-12-07T15:35:39;100991.94;;;15.17;44.03